Pagina principale
METAR-TAF:

METAR-TAF

Aeroporti :

Aeroporto di Corfù-Giovanni Capodistria

Corfù, Grecia

latitudine: 39-37N, longitudine: 019-55E, altezza: 2 m

Osservazione

Il bollettino è stato emesso 27 minuti fa, alle 15:50 UTC
Vento 7 kt da nord/nord-est
Temperature 34°C
Umidità 47%
Pressione 1011 hPa
Visibilità 10 km o più
Poco nuvoloso ad un'altezza di 2500 ft

METAR: LGKR 181550Z 03007KT 9999 FEW025 34/21 Q1011 NOSIG

Ora: 19:17 (16:17 UTC)

Previsione

Il bollettino è stato emesso 5 ore e 17 minuti fa, alle 11:00 UTC
Previsione valida dal 18 alle 12 UTC al 19 alle 12 UTC
Vento 5 kt da direzioni variabili
Visibilità 10 km o più
Poco nuvoloso ad un'altezza di 2000 ft
Nubi sparse ad un'altezza di 8000 ft
Evoluzione graduale
dal 18 alle 12 UTC al 18 alle 14 UTC
Vento 10 kt da nord

TAF: LGKR 181100Z 1812/1912 VRB05KT 9999 FEW020 SCT080 BECMG 1812/1814 35010KT

Osservazioni e previsioni meteorologiche di più di 4000 aeroporti (messaggi METAR e TAF).

Le stazioni disponibili sono rappresentate dai dischi gialli e rossi sulla carta.

Puntare il mouse per vedere il nome della stazione.

Clicca sopra per visualizzare le osservazioni e previsioni meteorologiche.

Per cambiare la mappa : fare clic sui pulsanti verdi con una croce nera per ingrandire, il pulsante verde con un trattino per diminuire, o sulla freccia verde per le mappe adiacenti.


METAR-TAF: